Time;durP1;ratioP1;P1;durP2;ratioP2;P2;SDS_P1;SDS_P2;PMS_P1;PMS_P2;Temp;Humidity;BMP_temperature;BMP_pressure;BME280_temperature;BME280_humidity;BME280_pressure;Samples;Min_cycle;Max_cycle;Signal;HPM_P1;HPM_P2
2022/10/25 00:01:32;;;;;;;22.50;5.50;;;;;;;11.61;100.00;101002.06;5081689;28;20020;-65
2022/10/25 00:03:57;;;;;;;21.92;5.10;;;;;;;11.61;100.00;100997.63;5000878;28;20469;-66
2022/10/25 00:06:23;;;;;;;21.77;5.18;;;;;;;11.66;100.00;101000.28;5001603;28;20100;-65
2022/10/25 00:08:49;;;;;;;20.92;5.22;;;;;;;11.64;100.00;101007.38;4999376;28;20070;-64
2022/10/25 00:11:19;;;;;;;21.02;5.13;;;;;;;11.68;100.00;101019.75;5002787;28;20041;-71
2022/10/25 00:13:47;;;;;;;22.92;5.30;;;;;;;11.71;100.00;101009.16;4999135;28;20505;-71
2022/10/25 00:16:15;;;;;;;22.00;5.10;;;;;;;11.81;100.00;101015.31;4995298;28;20034;-71
2022/10/25 00:18:41;;;;;;;20.02;4.68;;;;;;;11.87;100.00;101015.38;4995290;28;20034;-71
2022/10/25 00:21:06;;;;;;;21.02;4.93;;;;;;;11.93;100.00;101011.84;5001741;28;20057;-71
2022/10/25 00:23:31;;;;;;;22.77;5.05;;;;;;;11.93;100.00;101012.75;5000166;28;20034;-70
2022/10/25 00:26:05;;;;;;;22.13;5.10;;;;;;;11.94;100.00;101017.19;5000714;28;20030;-71
2022/10/25 00:28:30;;;;;;;21.50;5.13;;;;;;;12.02;100.00;101010.09;5000341;28;20066;-71
2022/10/25 00:31:08;;;;;;;22.10;4.97;;;;;;;12.08;100.00;101024.25;4952123;28;20163;-71
2022/10/25 00:33:35;;;;;;;23.08;4.97;;;;;;;12.11;100.00;101021.59;4942050;29;20507;-71
2022/10/25 00:36:20;;;;;;;25.13;5.55;;;;;;;12.07;100.00;101028.66;4942951;29;20092;-70
2022/10/25 00:38:47;;;;;;;21.02;5.15;;;;;;;12.11;100.00;101030.41;4937939;29;20032;-69
2022/10/25 00:41:14;;;;;;;21.35;4.72;;;;;;;12.15;100.00;101026.91;5000867;28;20055;-70
2022/10/25 00:43:43;;;;;;;22.85;4.78;;;;;;;12.19;100.00;101033.09;5039539;28;20396;-71
2022/10/25 00:46:22;;;;;;;22.65;4.80;;;;;;;12.23;100.00;101026.00;5044027;28;20357;-70
2022/10/25 00:48:56;;;;;;;18.70;4.60;;;;;;;12.24;100.00;101026.00;5039390;28;20517;-70
2022/10/25 00:51:24;;;;;;;21.25;4.50;;;;;;;12.26;100.00;101024.28;5046985;28;20025;-71
2022/10/25 00:53:50;;;;;;;22.15;4.43;;;;;;;12.26;100.00;101023.38;5044966;28;20036;-70
2022/10/25 00:56:19;;;;;;;19.98;4.20;;;;;;;12.21;100.00;101020.72;5047646;28;20025;-68
2022/10/25 00:58:50;;;;;;;20.13;4.30;;;;;;;12.16;100.00;101031.31;5040399;28;20053;-71
2022/10/25 01:01:16;;;;;;;22.13;4.30;;;;;;;12.12;100.00;101026.91;5040511;28;20380;-70
2022/10/25 01:03:45;;;;;;;20.17;4.10;;;;;;;12.09;100.00;101023.38;5040089;28;20021;-68
2022/10/25 01:06:17;;;;;;;22.58;4.30;;;;;;;12.10;100.00;101028.69;5047373;28;20035;-71
2022/10/25 01:08:45;;;;;;;21.77;4.65;;;;;;;12.08;100.00;101029.56;5040283;28;20097;-67
2022/10/25 01:11:11;;;;;;;19.15;4.40;;;;;;;12.05;100.00;101025.13;5047362;28;20035;-69
2022/10/25 01:13:36;;;;;;;23.10;4.55;;;;;;;12.05;100.00;101030.41;5045083;28;20029;-70
2022/10/25 01:16:39;;;;;;;20.38;4.30;;;;;;;12.03;100.00;101037.50;5046022;28;20454;-67
2022/10/25 01:19:18;;;;;;;22.20;4.63;;;;;;;12.03;100.00;101040.16;5045539;28;20039;-70
2022/10/25 01:21:47;;;;;;;21.92;4.68;;;;;;;12.02;100.00;101038.38;5040065;28;20022;-67
2022/10/25 01:24:35;;;;;;;19.75;4.13;;;;;;;12.06;100.00;101040.16;5039687;28;20021;-68
2022/10/25 01:27:15;;;;;;;23.15;4.55;;;;;;;12.06;100.00;101041.91;5044082;28;20029;-68
2022/10/25 01:30:04;;;;;;;22.13;4.70;;;;;;;12.08;100.00;101041.03;5043747;28;20034;-68
2022/10/25 01:32:58;;;;;;;19.38;4.03;;;;;;;12.16;100.00;101049.00;5043630;28;20036;-67
2022/10/25 01:35:30;;;;;;;20.33;3.90;;;;;;;12.20;100.00;101056.94;5019724;28;20413;-68
2022/10/25 01:38:11;;;;;;;20.48;3.83;;;;;;;12.18;100.00;101053.41;5023464;28;20045;-65
2022/10/25 01:41:26;;;;;;;22.05;3.70;;;;;;;12.23;100.00;101050.75;5024159;28;20094;-66
2022/10/25 01:43:55;;;;;;;18.38;4.13;;;;;;;12.17;100.00;101061.34;5019613;28;20432;-66
2022/10/25 01:46:31;;;;;;;19.33;3.80;;;;;;;12.15;100.00;101064.00;5024036;28;20033;-65
2022/10/25 01:49:25;;;;;;;21.50;4.15;;;;;;;12.22;100.00;101059.59;5022421;28;20038;-65
2022/10/25 01:51:50;;;;;;;22.80;4.28;;;;;;;12.15;100.00;101058.69;5021501;28;20169;-66
2022/10/25 01:54:20;;;;;;;17.75;4.10;;;;;;;12.16;100.00;101049.00;5024528;28;20040;-65
2022/10/25 01:56:54;;;;;;;20.13;3.80;;;;;;;12.13;100.00;101060.47;5021149;28;20544;-65
2022/10/25 01:59:22;;;;;;;20.92;4.15;;;;;;;12.06;100.00;101060.44;5020362;28;20034;-66
2022/10/25 02:02:04;;;;;;;21.30;3.92;;;;;;;12.04;100.00;101052.50;5024138;28;20048;-66
2022/10/25 02:04:46;;;;;;;19.45;3.80;;;;;;;12.11;100.00;101059.56;5022469;28;20056;-65
2022/10/25 02:07:24;;;;;;;22.30;4.30;;;;;;;12.13;100.00;101054.28;5020942;28;20034;-65
2022/10/25 02:10:03;;;;;;;21.48;4.28;;;;;;;12.14;100.00;101062.22;5021101;28;20409;-65
2022/10/25 02:12:54;;;;;;;18.10;3.97;;;;;;;12.20;100.00;101067.56;5034807;28;20032;-66
2022/10/25 02:15:26;;;;;;;20.63;3.78;;;;;;;12.16;100.00;101076.38;5039208;28;20049;-64
2022/10/25 02:17:58;;;;;;;19.88;4.00;;;;;;;12.17;100.00;101072.84;5045727;28;20021;-66
2022/10/25 02:20:25;;;;;;;19.98;3.97;;;;;;;12.18;100.00;101074.59;5043344;28;20029;-66
2022/10/25 02:22:53;;;;;;;20.00;4.03;;;;;;;12.15;100.00;101076.38;5045249;28;20079;-65
2022/10/25 02:25:20;;;;;;;18.15;3.70;;;;;;;12.13;100.00;101071.06;5042995;28;20040;-66
2022/10/25 02:27:49;;;;;;;19.65;4.15;;;;;;;12.06;100.00;101061.34;5046155;28;20136;-66
2022/10/25 02:30:15;;;;;;;20.75;3.95;;;;;;;11.99;100.00;101072.81;5037324;28;20057;-65
2022/10/25 02:32:41;;;;;;;20.65;3.90;;;;;;;12.01;100.00;101073.69;5044868;28;20044;-66
2022/10/25 02:35:14;;;;;;;22.05;4.20;;;;;;;11.93;100.00;101070.13;5042950;28;20025;-65
2022/10/25 02:37:39;;;;;;;20.38;4.38;;;;;;;11.89;100.00;101069.22;5045195;28;20033;-66
2022/10/25 02:40:05;;;;;;;21.35;4.50;;;;;;;11.89;100.00;101085.09;5043046;28;20056;-65
2022/10/25 02:42:31;;;;;;;19.90;4.40;;;;;;;11.90;100.00;101084.25;5044383;28;20032;-65
2022/10/25 02:44:56;;;;;;;19.48;3.97;;;;;;;11.84;100.00;101082.44;5044603;28;20025;-65
2022/10/25 02:47:21;;;;;;;22.00;4.10;;;;;;;11.83;100.00;101091.28;5042651;28;20115;-66
2022/10/25 02:49:46;;;;;;;19.25;4.35;;;;;;;11.82;100.00;101083.31;5045257;28;20092;-65
2022/10/25 02:52:12;;;;;;;21.48;4.25;;;;;;;11.83;100.00;101082.44;5042273;28;20029;-65
2022/10/25 02:54:37;;;;;;;20.63;4.53;;;;;;;11.81;100.00;101089.47;5044681;28;20077;-66
2022/10/25 02:57:02;;;;;;;20.70;4.30;;;;;;;11.79;100.00;101081.53;5043367;28;20056;-65
2022/10/25 02:59:28;;;;;;;20.05;4.43;;;;;;;11.83;100.00;101093.91;5043375;28;20076;-65
2022/10/25 03:01:54;;;;;;;20.00;4.30;;;;;;;11.77;100.00;101093.03;5044756;28;20108;-64
2022/10/25 03:04:19;;;;;;;18.40;4.35;;;;;;;11.72;100.00;101087.69;5041908;28;20499;-65
2022/10/25 03:06:44;;;;;;;22.02;4.78;;;;;;;11.77;100.00;101087.72;5045112;28;20029;-65
2022/10/25 03:09:10;;;;;;;19.42;4.13;;;;;;;11.74;100.00;101087.72;5042154;28;20503;-65
2022/10/25 03:11:35;;;;;;;22.00;4.65;;;;;;;11.79;100.00;101091.25;5043613;28;20064;-65
2022/10/25 03:14:00;;;;;;;19.05;4.25;;;;;;;11.80;100.00;101088.63;5043063;28;20028;-65
2022/10/25 03:16:26;;;;;;;18.55;4.20;;;;;;;11.83;100.00;101098.34;5042965;28;20049;-66
2022/10/25 03:18:51;;;;;;;20.83;4.53;;;;;;;11.82;100.00;101108.06;5044354;28;20028;-64
2022/10/25 03:21:16;;;;;;;20.40;4.10;;;;;;;11.81;100.00;101106.28;5042074;28;20369;-66
2022/10/25 03:23:41;;;;;;;18.10;4.10;;;;;;;11.80;100.00;101108.94;5044571;28;20098;-66
2022/10/25 03:26:07;;;;;;;20.58;4.35;;;;;;;11.69;100.00;101108.88;5041980;28;20060;-65
2022/10/25 03:28:32;;;;;;;18.10;3.88;;;;;;;11.58;100.00;101113.25;5042125;28;20037;-65
2022/10/25 03:30:59;;;;;;;22.33;4.63;;;;;;;11.55;100.00;101123.81;5043390;28;20033;-65
2022/10/25 03:33:25;;;;;;;20.38;4.38;;;;;;;11.51;100.00;101120.28;5042075;28;20449;-65
2022/10/25 03:35:51;;;;;;;16.83;4.18;;;;;;;11.47;100.00;101129.06;5044372;28;20021;-65
2022/10/25 03:38:17;;;;;;;19.58;4.40;;;;;;;11.43;100.00;101129.94;5040982;28;20472;-65
2022/10/25 03:40:43;;;;;;;19.67;4.43;;;;;;;11.40;100.00;101130.81;5043125;28;20078;-65
2022/10/25 03:43:08;;;;;;;19.70;4.65;;;;;;;11.37;100.00;101141.38;5041734;28;20029;-65
2022/10/25 03:45:33;;;;;;;18.88;4.70;;;;;;;11.36;100.00;101136.97;5043097;28;20022;-65
2022/10/25 03:47:59;;;;;;;18.33;4.55;;;;;;;11.39;100.00;101138.72;5042852;28;20056;-65
2022/10/25 03:50:24;;;;;;;19.02;4.35;;;;;;;11.33;100.00;101144.91;5042298;28;20056;-68
2022/10/25 03:52:49;;;;;;;17.17;4.30;;;;;;;11.34;100.00;101147.56;5044201;28;20108;-70
2022/10/25 03:55:15;;;;;;;17.40;4.30;;;;;;;11.36;100.00;101155.50;5040898;28;20030;-68
2022/10/25 03:57:40;;;;;;;17.92;4.50;;;;;;;11.39;100.00;101146.66;5043894;28;20021;-68
2022/10/25 04:00:06;;;;;;;20.70;4.72;;;;;;;11.36;100.00;101154.59;5041858;28;20032;-71
2022/10/25 04:02:31;;;;;;;17.83;4.30;;;;;;;11.37;100.00;101153.72;5043079;28;20021;-68
2022/10/25 04:04:57;;;;;;;18.90;4.70;;;;;;;11.36;100.00;101150.19;5043028;28;20041;-67
2022/10/25 04:07:22;;;;;;;20.40;4.70;;;;;;;11.40;100.00;101167.88;5040026;28;20391;-68
2022/10/25 04:09:47;;;;;;;18.42;4.40;;;;;;;11.50;100.00;101159.13;5044521;28;20032;-69
2022/10/25 04:12:13;;;;;;;18.90;4.50;;;;;;;11.51;100.00;101162.63;5040677;28;20024;-68
2022/10/25 04:14:38;;;;;;;19.17;4.50;;;;;;;11.47;100.00;101153.78;5043323;28;20119;-70
2022/10/25 04:17:03;;;;;;;19.95;4.70;;;;;;;11.41;100.00;101155.53;5042049;28;20031;-70
2022/10/25 04:19:29;;;;;;;18.42;4.75;;;;;;;11.40;100.00;101149.34;5040999;28;20061;-69
2022/10/25 04:21:54;;;;;;;20.98;4.85;;;;;;;11.33;100.00;101160.78;5043239;28;20100;-70
2022/10/25 04:24:21;;;;;;;19.48;4.70;;;;;;;11.29;100.00;101156.34;5044351;28;20071;-71
2022/10/25 04:26:46;;;;;;;20.63;4.78;;;;;;;11.26;100.00;101162.50;5048552;28;20032;-70
2022/10/25 04:29:12;;;;;;;19.35;5.07;;;;;;;11.19;100.00;101163.31;5044563;28;20025;-69
2022/10/25 04:31:37;;;;;;;20.35;5.03;;;;;;;11.17;100.00;101165.09;5047358;28;20037;-69
2022/10/25 04:34:02;;;;;;;19.73;5.13;;;;;;;11.22;100.00;101162.47;5046204;28;20032;-68
2022/10/25 04:36:29;;;;;;;21.77;5.47;;;;;;;11.23;100.00;101170.41;5045918;28;20029;-68
2022/10/25 04:38:55;;;;;;;20.05;5.25;;;;;;;11.24;100.00;101171.28;5047273;28;20492;-70
2022/10/25 04:41:21;;;;;;;20.58;5.68;;;;;;;11.15;100.00;101170.38;5044612;28;20029;-69
2022/10/25 04:43:47;;;;;;;19.20;5.53;;;;;;;11.17;100.00;101165.09;5048105;28;20017;-71
2022/10/25 04:46:13;;;;;;;20.50;5.57;;;;;;;11.22;100.00;101173.03;5044420;28;20025;-69
2022/10/25 04:48:40;;;;;;;20.13;5.50;;;;;;;11.25;100.00;101162.47;5046864;28;20064;-71
2022/10/25 04:51:05;;;;;;;21.58;5.60;;;;;;;11.23;100.00;101175.69;5045595;28;20506;-70
2022/10/25 04:53:31;;;;;;;21.27;5.65;;;;;;;11.16;100.00;101174.75;5045836;28;20029;-70
2022/10/25 04:56:05;;;;;;;21.95;5.93;;;;;;;11.16;100.00;101174.75;5046561;28;20033;-70
2022/10/25 04:58:31;;;;;;;21.67;5.95;;;;;;;11.18;100.00;101176.53;5045548;28;20036;-70
2022/10/25 05:01:02;;;;;;;20.83;5.45;;;;;;;11.13;100.00;101171.22;5046526;28;20392;-71
2022/10/25 05:03:29;;;;;;;22.67;5.68;;;;;;;11.16;100.00;101180.06;5043900;28;20493;-70
2022/10/25 05:05:55;;;;;;;22.15;5.90;;;;;;;11.15;100.00;101183.59;5046844;28;20067;-70
2022/10/25 05:08:20;;;;;;;20.98;6.00;;;;;;;11.12;100.00;101182.66;5044239;28;20106;-70
2022/10/25 05:10:54;;;;;;;20.98;6.07;;;;;;;11.07;100.00;101195.88;5047310;28;20021;-70
2022/10/25 05:13:20;;;;;;;20.60;5.50;;;;;;;11.04;100.00;101192.28;5040623;28;20022;-69
2022/10/25 05:15:54;;;;;;;22.60;5.68;;;;;;;11.06;100.00;101195.84;5047619;28;20029;-68
2022/10/25 05:18:19;;;;;;;19.75;5.75;;;;;;;11.05;100.00;101197.59;5040546;28;20065;-68
2022/10/25 05:20:53;;;;;;;22.95;5.93;;;;;;;11.04;100.00;101198.50;5047022;28;20440;-69
2022/10/25 05:23:19;;;;;;;20.65;5.85;;;;;;;10.97;100.00;101201.97;5040228;28;20034;-69
2022/10/25 05:25:44;;;;;;;18.90;5.15;;;;;;;11.04;100.00;101203.78;5039756;28;20492;-68
2022/10/25 05:28:10;;;;;;;19.65;5.40;;;;;;;11.05;100.00;101208.19;5046224;28;20029;-68
2022/10/25 05:30:42;;;;;;;21.15;5.60;;;;;;;11.00;100.00;101209.91;5044765;28;20074;-67
2022/10/25 05:33:07;;;;;;;20.90;5.38;;;;;;;11.04;100.00;101210.81;5046185;28;20048;-68
2022/10/25 05:35:33;;;;;;;22.52;5.35;;;;;;;11.01;100.00;101211.69;5044913;28;20476;-68
2022/10/25 05:37:59;;;;;;;20.10;5.80;;;;;;;10.93;100.00;101214.25;5044452;28;20026;-68
2022/10/25 05:40:24;;;;;;;22.15;5.82;;;;;;;10.92;100.00;101214.25;5046113;28;20025;-70
2022/10/25 05:42:52;;;;;;;22.50;5.97;;;;;;;10.94;100.00;101217.81;5043338;28;20025;-70
2022/10/25 05:45:17;;;;;;;20.83;5.95;;;;;;;11.05;100.00;101228.47;5046676;28;20368;-71
2022/10/25 05:47:42;;;;;;;21.48;5.70;;;;;;;11.02;100.00;101226.69;5043562;28;20033;-67
2022/10/25 05:50:08;;;;;;;21.17;5.70;;;;;;;11.01;100.00;101227.56;5038888;28;20059;-70
2022/10/25 05:52:33;;;;;;;20.80;5.63;;;;;;;10.98;100.00;101228.44;5045165;28;20031;-70
2022/10/25 05:54:59;;;;;;;19.90;5.60;;;;;;;10.92;100.00;101233.66;5045350;28;20024;-69
2022/10/25 05:57:24;;;;;;;21.67;5.80;;;;;;;10.89;100.00;101236.28;5043323;28;20354;-67
2022/10/25 05:59:49;;;;;;;21.50;6.38;;;;;;;10.94;100.00;101242.50;5046760;28;20036;-68
2022/10/25 06:02:14;;;;;;;23.50;6.97;;;;;;;10.92;100.00;101249.53;5035688;28;20021;-63
2022/10/25 06:04:40;;;;;;;21.35;6.75;;;;;;;10.95;100.00;101243.38;5045414;28;20480;-62
2022/10/25 06:07:05;;;;;;;22.45;7.18;;;;;;;11.02;100.00;101253.13;5047470;28;20037;-62
2022/10/25 06:09:30;;;;;;;22.83;7.50;;;;;;;11.07;100.00;101258.50;5045511;28;20060;-63
2022/10/25 06:11:56;;;;;;;22.48;7.07;;;;;;;11.06;100.00;101252.28;5046604;28;20166;-63
2022/10/25 06:14:21;;;;;;;23.25;7.55;;;;;;;11.06;100.00;101249.66;5045608;28;20151;-63
2022/10/25 06:16:46;;;;;;;24.05;7.82;;;;;;;11.09;100.00;101259.38;5045459;28;20070;-62
2022/10/25 06:19:12;;;;;;;23.13;7.95;;;;;;;11.09;100.00;101262.91;5048665;28;20017;-62
2022/10/25 06:21:37;;;;;;;25.90;8.25;;;;;;;11.05;100.00;101253.16;5046574;28;20025;-63
2022/10/25 06:24:03;;;;;;;22.85;7.53;;;;;;;11.04;100.00;101269.94;5045523;28;20433;-63
2022/10/25 06:26:30;;;;;;;23.02;8.60;;;;;;;11.09;100.00;101272.59;5042982;28;20029;-63
2022/10/25 06:29:01;;;;;;;24.25;8.40;;;;;;;11.20;100.00;101272.69;5044052;28;20037;-63
2022/10/25 06:31:28;;;;;;;23.38;8.13;;;;;;;11.07;100.00;101275.25;5045976;28;20033;-63
2022/10/25 06:33:53;;;;;;;24.00;8.73;;;;;;;11.03;100.00;101278.72;5042352;28;20361;-62
2022/10/25 06:36:21;;;;;;;24.60;8.77;;;;;;;11.04;100.00;101285.78;5045027;28;20028;-62
2022/10/25 06:38:48;;;;;;;23.17;8.55;;;;;;;11.06;100.00;101285.81;5046811;28;20024;-63
2022/10/25 06:41:21;;;;;;;22.60;8.43;;;;;;;11.09;100.00;101281.41;5046321;28;20491;-62
2022/10/25 06:43:47;;;;;;;23.80;8.55;;;;;;;11.12;100.00;101292.03;5043531;28;20025;-62
2022/10/25 06:46:26;;;;;;;25.48;8.93;;;;;;;11.18;100.00;101292.97;5043600;28;20475;-62
2022/10/25 06:48:54;;;;;;;23.88;8.10;;;;;;;11.21;100.00;101288.56;5044642;28;20049;-63
2022/10/25 06:51:20;;;;;;;25.48;9.02;;;;;;;11.21;100.00;101295.63;5047579;28;20025;-63
2022/10/25 06:53:45;;;;;;;24.38;8.63;;;;;;;11.22;100.00;101297.41;5021534;28;20043;-62
2022/10/25 06:56:13;;;;;;;24.15;9.32;;;;;;;11.18;100.00;101304.44;5047955;28;20108;-62
2022/10/25 06:58:38;;;;;;;25.88;8.82;;;;;;;11.19;100.00;101300.03;5038434;28;20094;-64
2022/10/25 07:01:06;;;;;;;25.48;9.18;;;;;;;11.21;100.00;101298.28;5037781;28;20025;-63
2022/10/25 07:03:35;;;;;;;24.13;8.75;;;;;;;11.22;100.00;101305.34;5032467;28;20017;-63
2022/10/25 07:06:04;;;;;;;25.58;9.18;;;;;;;11.24;100.00;101309.81;5033470;28;20021;-63
2022/10/25 07:08:30;;;;;;;25.95;9.23;;;;;;;11.25;100.00;101308.03;5033781;28;20053;-63
2022/10/25 07:10:56;;;;;;;25.00;9.18;;;;;;;11.24;100.00;101319.47;5033247;28;20080;-63
2022/10/25 07:13:21;;;;;;;25.30;8.68;;;;;;;11.22;100.00;101321.25;5032759;28;20024;-61
2022/10/25 07:15:47;;;;;;;23.60;8.88;;;;;;;11.25;100.00;101327.44;5033897;28;20025;-62
2022/10/25 07:18:12;;;;;;;24.35;9.20;;;;;;;11.38;100.00;101323.13;5034645;28;20034;-63
2022/10/25 07:20:37;;;;;;;25.33;9.35;;;;;;;11.49;100.00;101326.78;5035544;28;20029;-63
2022/10/25 07:23:03;;;;;;;25.38;8.80;;;;;;;11.56;100.00;101316.22;5035250;28;20021;-64
2022/10/25 07:25:29;;;;;;;23.65;8.60;;;;;;;11.62;100.00;101327.75;5034346;28;20025;-64
2022/10/25 07:27:55;;;;;;;23.13;8.65;;;;;;;11.68;100.00;101337.50;5040022;28;20449;-63
2022/10/25 07:30:20;;;;;;;24.15;8.60;;;;;;;11.68;100.00;101340.16;5045665;28;20064;-63
2022/10/25 07:32:46;;;;;;;23.48;8.60;;;;;;;11.70;100.00;101343.69;5047514;28;20067;-63
2022/10/25 07:35:11;;;;;;;23.60;8.32;;;;;;;11.74;100.00;101344.63;5048284;28;20060;-64
2022/10/25 07:37:36;;;;;;;25.17;8.82;;;;;;;11.74;100.00;101348.16;5038518;28;20123;-63
2022/10/25 07:40:02;;;;;;;24.88;8.50;;;;;;;11.82;100.00;101357.06;5045698;28;20033;-64
2022/10/25 07:42:27;;;;;;;22.80;8.38;;;;;;;11.89;100.00;101357.97;5043301;28;20021;-63
2022/10/25 07:44:52;;;;;;;23.58;8.50;;;;;;;11.92;100.00;101354.44;5046441;28;20457;-63
2022/10/25 07:47:18;;;;;;;25.08;8.63;;;;;;;11.95;100.00;101352.72;5041721;28;20033;-63
2022/10/25 07:49:43;;;;;;;23.77;8.60;;;;;;;12.00;100.00;101351.00;5044798;28;20049;-71
2022/10/25 07:52:10;;;;;;;24.55;8.90;;;;;;;12.07;100.00;101348.41;5043955;28;20100;-69
2022/10/25 07:54:35;;;;;;;24.38;8.43;;;;;;;12.12;100.00;101358.16;5042151;28;20147;-71
2022/10/25 07:57:01;;;;;;;22.33;7.72;;;;;;;12.16;100.00;101357.28;5044645;28;20457;-69
2022/10/25 07:59:26;;;;;;;24.20;8.85;;;;;;;12.25;100.00;101363.53;5042753;28;20079;-71
2022/10/25 08:01:51;;;;;;;25.30;8.30;;;;;;;12.24;100.00;101359.97;5043971;28;20017;-71
2022/10/25 08:04:16;;;;;;;23.75;8.00;;;;;;;12.23;100.00;101362.63;5041941;28;20482;-71
2022/10/25 08:06:42;;;;;;;24.67;8.40;;;;;;;12.27;100.00;101370.59;5042339;28;20115;-70
2022/10/25 08:09:07;;;;;;;23.65;8.15;;;;;;;12.29;100.00;101373.25;5043376;28;20032;-68
2022/10/25 08:11:32;;;;;;;23.40;8.20;;;;;;;12.29;100.00;101367.94;5037230;28;20058;-77
2022/10/25 08:13:58;;;;;;;23.13;8.20;;;;;;;12.32;100.00;101363.56;5046149;28;20055;-75
2022/10/25 08:16:23;;;;;;;22.13;8.13;;;;;;;12.39;100.00;101375.06;5043674;28;20029;-82
2022/10/25 08:18:48;;;;;;;24.15;8.30;;;;;;;12.48;100.00;101372.50;5043649;28;20073;-81
2022/10/25 08:21:14;;;;;;;25.40;8.10;;;;;;;12.49;100.00;101376.88;5045091;28;20032;-79
2022/10/25 08:23:39;;;;;;;24.20;8.48;;;;;;;12.57;100.00;101371.66;5043703;28;20480;-79
2022/10/25 08:26:05;;;;;;;22.92;8.00;;;;;;;12.58;100.00;101381.34;5044031;28;20495;-75
2022/10/25 08:28:30;;;;;;;22.77;8.30;;;;;;;12.59;100.00;101382.25;5039665;28;20052;-76
2022/10/25 08:30:56;;;;;;;23.88;8.60;;;;;;;12.60;100.00;101379.63;5035209;28;20136;-63
2022/10/25 08:33:23;;;;;;;21.20;8.05;;;;;;;12.73;100.00;101384.09;5044155;28;20053;-63
2022/10/25 08:35:49;;;;;;;22.90;7.88;;;;;;;12.89;100.00;101382.38;5046909;28;20033;-63
2022/10/25 08:38:14;;;;;;;21.05;7.80;;;;;;;12.92;100.00;101386.81;5040919;28;20393;-63
2022/10/25 08:40:59;;;;;;;22.73;7.65;;;;;;;13.10;100.00;101377.13;5043505;28;20026;-63
2022/10/25 08:43:58;;;;;;;23.45;7.80;;;;;;;13.27;100.00;101393.09;5042152;28;20025;-63
2022/10/25 08:46:35;;;;;;;22.02;7.55;;;;;;;13.19;100.00;101387.75;5039629;28;20057;-63
2022/10/25 08:49:20;;;;;;;21.88;7.72;;;;;;;13.12;100.00;101384.22;5038090;28;20046;-63
2022/10/25 08:51:47;;;;;;;21.98;7.50;;;;;;;13.17;100.00;101393.06;5043404;28;20128;-63
2022/10/25 08:54:26;;;;;;;24.35;7.82;;;;;;;13.41;100.00;101386.97;5047291;28;20029;-64
2022/10/25 08:57:00;;;;;;;23.00;7.47;;;;;;;13.59;100.00;101396.69;5041499;28;20032;-62
2022/10/25 08:59:32;;;;;;;20.55;6.97;;;;;;;13.85;100.00;101392.28;5043784;28;20027;-63
2022/10/25 09:01:59;;;;;;;20.85;6.70;;;;;;;14.03;100.00;101396.69;5040526;28;20026;-64
2022/10/25 09:04:25;;;;;;;20.65;6.63;;;;;;;14.03;100.00;101391.38;5036474;28;20044;-63
2022/10/25 09:06:59;;;;;;;21.67;6.47;;;;;;;13.90;100.00;101404.66;5042011;28;20380;-62
2022/10/25 09:09:48;;;;;;;21.50;6.80;;;;;;;13.83;100.00;101400.25;5045664;28;20366;-62
2022/10/25 09:12:54;;;;;;;21.00;6.70;;;;;;;13.81;100.00;101407.34;5042876;28;20029;-62
2022/10/25 09:15:46;;;;;;;23.25;7.28;;;;;;;13.77;100.00;101411.78;5017235;28;20496;-64
2022/10/25 09:18:18;;;;;;;22.77;6.88;;;;;;;13.73;100.00;101419.72;5016327;28;20070;-63
2022/10/25 09:20:51;;;;;;;21.23;6.80;;;;;;;13.89;100.00;101423.28;5015144;28;20198;-64
2022/10/25 09:23:29;;;;;;;21.35;6.97;;;;;;;13.98;100.00;101420.63;5014837;28;20041;-63
2022/10/25 09:26:10;;;;;;;21.60;6.65;;;;;;;14.08;100.00;101430.38;4999694;28;20038;-63
2022/10/25 09:28:35;;;;;;;19.58;6.43;;;;;;;14.06;100.00;101420.63;5019533;28;20042;-63
2022/10/25 09:31:03;;;;;;;21.67;6.22;;;;;;;14.22;100.00;101430.34;5012979;28;20034;-63
2022/10/25 09:33:30;;;;;;;21.17;6.22;;;;;;;14.25;100.00;101430.31;5013328;28;20029;-62
2022/10/25 09:35:58;;;;;;;20.30;6.00;;;;;;;14.27;100.00;101428.56;5012382;28;20033;-64
2022/10/25 09:38:54;;;;;;;21.40;5.90;;;;;;;14.30;100.00;101428.56;5019061;28;20041;-64
2022/10/25 09:41:34;;;;;;;19.33;5.93;;;;;;;14.22;100.00;101435.66;5013609;28;20376;-72
2022/10/25 09:44:02;;;;;;;22.17;5.97;;;;;;;14.23;100.00;101423.25;5012170;28;20037;-69
2022/10/25 09:46:36;;;;;;;19.45;5.30;;;;;;;14.19;100.00;101430.34;5011728;28;20588;-70
2022/10/25 09:49:28;;;;;;;19.63;5.75;;;;;;;14.21;100.00;101431.25;5015467;28;20140;-70
2022/10/25 09:51:59;;;;;;;19.67;5.60;;;;;;;14.17;100.00;101433.88;5046986;28;20049;-70
2022/10/25 09:54:40;;;;;;;18.65;5.65;;;;;;;14.06;100.00;101439.22;5045151;28;20048;-68
2022/10/25 09:57:06;;;;;;;22.02;6.03;;;;;;;13.99;100.00;101437.47;5047586;28;20475;-68
2022/10/25 09:59:32;;;;;;;20.13;5.15;;;;;;;14.13;100.00;101435.69;5049988;28;20040;-66
2022/10/25 10:01:57;;;;;;;20.23;5.28;;;;;;;14.15;100.00;101438.34;5048177;28;20506;-67
2022/10/25 10:04:33;;;;;;;21.35;5.80;;;;;;;14.22;100.00;101448.06;5041781;28;20028;-65
2022/10/25 10:07:06;;;;;;;19.75;5.38;;;;;;;14.25;100.00;101445.41;5034542;28;20108;-64
2022/10/25 10:09:33;;;;;;;18.80;4.90;;;;;;;14.34;100.00;101441.84;5044845;28;20066;-64
2022/10/25 10:12:04;;;;;;;18.20;4.65;;;;;;;14.45;100.00;101448.91;5044131;28;20032;-63
2022/10/25 10:14:35;;;;;;;18.67;4.85;;;;;;;14.53;100.00;101454.22;5047143;28;20044;-64
2022/10/25 10:17:02;;;;;;;18.55;4.88;;;;;;;14.42;100.00;101453.38;5049927;28;20033;-63
2022/10/25 10:19:31;;;;;;;19.35;4.40;;;;;;;14.41;100.00;101446.28;5046619;28;20029;-64
2022/10/25 10:22:00;;;;;;;19.23;4.70;;;;;;;14.32;100.00;101454.28;5042560;28;20025;-67
2022/10/25 10:24:31;;;;;;;19.30;4.93;;;;;;;14.33;100.00;101456.94;5040101;28;20017;-67
2022/10/25 10:26:58;;;;;;;21.88;5.00;;;;;;;14.27;100.00;101457.81;5035912;28;20096;-66
2022/10/25 10:29:29;;;;;;;18.88;4.50;;;;;;;14.32;100.00;101459.59;5038113;28;20025;-65
2022/10/25 10:31:58;;;;;;;18.45;4.95;;;;;;;14.20;100.00;101461.38;5047607;28;20037;-63
2022/10/25 10:34:29;;;;;;;21.88;5.18;;;;;;;14.18;100.00;101457.81;5047138;28;20491;-70
2022/10/25 10:37:01;;;;;;;18.77;4.70;;;;;;;14.24;100.00;101459.59;5038916;28;20033;-64
2022/10/25 10:39:26;;;;;;;20.80;5.20;;;;;;;14.33;100.00;101461.34;5047601;28;20029;-65
2022/10/25 10:42:01;;;;;;;20.60;5.10;;;;;;;14.39;100.00;101462.22;5045168;28;20034;-71
2022/10/25 10:44:28;;;;;;;20.17;5.18;;;;;;;14.55;100.00;101471.06;5045947;28;20087;-71
2022/10/25 10:46:54;;;;;;;18.92;4.80;;;;;;;14.53;100.00;101470.16;5042305;28;20477;-71
2022/10/25 10:49:23;;;;;;;19.08;4.65;;;;;;;14.51;100.00;101465.75;5044587;28;20049;-70
2022/10/25 10:51:48;;;;;;;19.38;5.32;;;;;;;14.69;100.00;101472.84;5044764;28;20102;-68
2022/10/25 10:54:23;;;;;;;16.98;4.70;;;;;;;14.86;100.00;101476.34;5045801;28;20480;-70
2022/10/25 10:56:57;;;;;;;17.73;4.50;;;;;;;15.12;100.00;101467.38;5042738;28;20039;-68
2022/10/25 10:59:32;;;;;;;20.27;4.68;;;;;;;15.16;100.00;101461.16;5048851;28;20028;-74
2022/10/25 11:02:10;;;;;;;18.67;4.25;;;;;;;15.72;100.00;101471.47;5041652;28;20080;-70
2022/10/25 11:04:49;;;;;;;18.70;4.50;;;;;;;15.89;100.00;101466.03;5046300;28;20112;-71
2022/10/25 11:07:25;;;;;;;16.33;3.80;;;;;;;16.06;100.00;101463.22;5043787;28;20017;-72
2022/10/25 11:09:50;;;;;;;16.52;3.72;;;;;;;16.15;100.00;101468.47;5047357;28;20029;-72
2022/10/25 11:12:17;;;;;;;18.13;4.20;;;;;;;15.91;100.00;101469.56;5043205;28;20420;-72
2022/10/25 11:14:43;;;;;;;16.35;4.03;;;;;;;15.66;100.00;101470.59;5046369;28;20072;-72
2022/10/25 11:17:14;;;;;;;15.55;3.78;;;;;;;15.66;100.00;101462.59;5041545;28;20033;-70
2022/10/25 11:20:20;;;;;;;18.42;4.63;;;;;;;15.62;100.00;101474.16;5044547;28;20059;-70